Time;durP1;ratioP1;P1;durP2;ratioP2;P2;SDS_P1;SDS_P2;PMS_P1;PMS_P2;Temp;Humidity;BMP_temperature;BMP_pressure;BME280_temperature;BME280_humidity;BME280_pressure;Samples;Min_cycle;Max_cycle;Signal;HPM_P1;HPM_P2
2022/08/08 00:02:00;;;;;;;6.30;3.08;;;15.20;99.90;;;;;;5071670;28;20059;-72
2022/08/08 00:04:44;;;;;;;4.72;2.63;;;15.20;99.90;;;;;;5071458;28;20045;-72
2022/08/08 00:07:25;;;;;;;7.60;2.83;;;15.20;99.90;;;;;;5075220;28;20041;-71
2022/08/08 00:10:03;;;;;;;6.05;2.90;;;15.10;99.90;;;;;;5075201;28;20036;-72
2022/08/08 00:12:36;;;;;;;8.82;3.03;;;15.10;99.90;;;;;;5075135;28;20052;-72
2022/08/08 00:15:11;;;;;;;5.10;3.05;;;15.10;99.90;;;;;;5075387;28;20193;-71
2022/08/08 00:18:01;;;;;;;7.15;3.17;;;15.00;99.90;;;;;;5058676;28;20052;-72
2022/08/08 00:20:49;;;;;;;3.75;2.85;;;15.10;99.90;;;;;;5075251;28;20113;-71
2022/08/08 00:23:23;;;;;;;6.78;2.65;;;15.00;99.90;;;;;;5074830;28;20051;-72
2022/08/08 00:25:54;;;;;;;4.88;2.70;;;15.00;99.90;;;;;;5074868;28;20044;-71
2022/08/08 00:28:39;;;;;;;5.72;3.20;;;15.00;99.90;;;;;;5058184;28;20044;-72
2022/08/08 00:31:13;;;;;;;6.63;3.10;;;15.00;99.90;;;;;;5058474;28;20040;-72
2022/08/08 00:33:44;;;;;;;4.88;3.30;;;15.00;99.90;;;;;;5075044;28;20040;-72
2022/08/08 00:36:26;;;;;;;7.68;3.53;;;15.00;99.90;;;;;;5074676;28;20040;-71
2022/08/08 00:39:12;;;;;;;6.28;3.42;;;15.00;99.90;;;;;;5074703;28;20036;-72
2022/08/08 00:41:59;;;;;;;6.18;3.20;;;15.00;99.90;;;;;;5074894;28;20048;-72
2022/08/08 00:44:31;;;;;;;6.57;2.75;;;15.00;99.90;;;;;;5074480;28;20090;-72
2022/08/08 00:46:56;;;;;;;7.03;3.08;;;14.80;99.90;;;;;;5057817;28;20043;-71
2022/08/08 00:49:38;;;;;;;6.63;3.42;;;14.80;99.90;;;;;;5074440;28;20036;-71
2022/08/08 00:52:22;;;;;;;5.82;3.25;;;14.80;99.90;;;;;;5057747;28;20123;-72
2022/08/08 00:54:53;;;;;;;5.00;3.00;;;14.70;99.90;;;;;;5074424;28;20036;-72
2022/08/08 00:57:54;;;;;;;7.72;3.40;;;14.60;99.90;;;;;;5057563;28;20049;-71
2022/08/08 01:00:22;;;;;;;5.32;3.63;;;14.60;99.90;;;;;;5074282;28;20032;-72
2022/08/08 01:03:16;;;;;;;5.10;3.58;;;14.60;99.90;;;;;;5057659;28;20048;-72
2022/08/08 01:06:12;;;;;;;6.47;3.75;;;14.60;99.90;;;;;;5074403;28;20107;-71
2022/08/08 01:08:57;;;;;;;4.93;3.70;;;14.60;99.90;;;;;;5074413;28;20036;-71
2022/08/08 01:11:44;;;;;;;4.80;3.65;;;14.50;99.90;;;;;;5057351;28;20037;-72
2022/08/08 01:14:25;;;;;;;6.82;3.72;;;14.50;99.90;;;;;;5074029;28;20547;-72
2022/08/08 01:16:59;;;;;;;4.75;3.42;;;14.50;99.90;;;;;;5057129;28;20045;-71
2022/08/08 01:19:59;;;;;;;8.38;3.90;;;14.40;99.90;;;;;;5057206;28;20463;-72
2022/08/08 01:22:36;;;;;;;7.53;3.83;;;14.50;99.90;;;;;;5073577;28;20511;-73
2022/08/08 01:25:23;;;;;;;3.85;3.30;;;14.40;99.90;;;;;;5073800;28;20489;-72
2022/08/08 01:28:05;;;;;;;6.68;3.22;;;14.40;99.90;;;;;;5057058;28;20118;-72
2022/08/08 01:30:58;;;;;;;3.92;3.33;;;14.40;99.90;;;;;;5057074;28;20044;-72
2022/08/08 01:33:41;;;;;;;4.00;3.40;;;14.30;99.90;;;;;;5073905;28;20501;-72
2022/08/08 01:36:35;;;;;;;5.78;3.15;;;14.30;99.90;;;;;;5056879;28;20044;-71
2022/08/08 01:39:06;;;;;;;;;;;14.30;99.90;;;;;;5073991;28;20085;-72
2022/08/08 01:42:00;;;;;;;5.75;3.20;;;14.10;99.90;;;;;;5073500;28;19916;-72
2022/08/08 01:44:53;;;;;;;4.47;3.10;;;14.20;99.90;;;;;;5073453;28;20036;-72
2022/08/08 01:47:21;;;;;;;3.75;2.95;;;14.20;99.90;;;;;;5073656;28;20032;-72
2022/08/08 01:50:39;;;;;;;4.55;2.92;;;14.20;99.90;;;;;;5073312;28;20044;-71
2022/08/08 01:53:33;;;;;;;5.10;3.05;;;14.20;99.90;;;;;;5035767;28;20064;-72
2022/08/08 01:56:14;;;;;;;;;;;14.20;99.90;;;;;;5056671;28;20135;-71
2022/08/08 01:59:22;;;;;;;2.88;2.10;;;14.10;99.90;;;;;;5073151;28;19916;-72
2022/08/08 02:02:27;;;;;;;3.17;2.70;;;14.10;99.90;;;;;;5073121;28;20044;-72
2022/08/08 02:05:18;;;;;;;4.32;3.00;;;14.10;99.90;;;;;;5073085;28;20033;-72
2022/08/08 02:08:10;;;;;;;3.72;2.80;;;14.00;99.90;;;;;;5073004;28;20036;-72
2022/08/08 02:10:59;;;;;;;4.75;2.80;;;14.00;99.90;;;;;;5073176;28;20562;-72
2022/08/08 02:13:40;;;;;;;3.60;2.90;;;14.00;99.90;;;;;;5072848;28;20535;-72
2022/08/08 02:16:15;;;;;;;3.97;2.97;;;14.00;99.90;;;;;;5072760;28;20037;-71
2022/08/08 02:19:18;;;;;;;3.80;2.55;;;13.90;99.90;;;;;;5073028;28;20413;-71
2022/08/08 02:24:54;;;;;;;5.93;3.22;;;13.90;99.90;;;;;;5072622;28;20090;-72
2022/08/08 02:27:44;;;;;;;4.03;2.30;;;13.80;99.90;;;;;;5071900;28;20085;-71
2022/08/08 02:30:16;;;;;;;8.48;3.00;;;13.80;99.90;;;;;;5072824;28;20033;-71
2022/08/08 02:33:10;;;;;;;4.53;2.60;;;13.80;99.90;;;;;;5055916;28;20044;-72
2022/08/08 02:35:51;;;;;;;;;;;13.80;99.90;;;;;;5056488;28;20504;-71
2022/08/08 02:38:35;;;;;;;2.65;2.10;;;13.70;99.90;;;;;;5072440;28;19920;-72
2022/08/08 02:41:32;;;;;;;3.60;1.88;;;13.70;99.90;;;;;;5072307;28;20477;-72
2022/08/08 02:44:06;;;;;;;3.75;1.88;;;13.70;99.90;;;;;;5072194;28;20051;-72
2022/08/08 02:46:47;;;;;;;3.58;2.30;;;13.70;99.90;;;;;;5072709;28;20037;-71
2022/08/08 02:49:45;;;;;;;4.60;2.88;;;13.70;99.90;;;;;;5072422;28;20493;-71
2022/08/08 02:52:43;;;;;;;4.00;2.95;;;13.60;99.90;;;;;;5072257;28;20072;-72
2022/08/08 02:55:48;;;;;;;4.07;2.92;;;13.60;99.90;;;;;;5072070;28;20393;-72
2022/08/08 02:58:25;;;;;;;4.82;3.20;;;13.60;99.90;;;;;;5072425;28;20036;-72
2022/08/08 03:01:16;;;;;;;4.88;3.15;;;13.60;99.90;;;;;;5055365;28;20078;-72
2022/08/08 03:04:03;;;;;;;3.58;3.08;;;13.60;99.90;;;;;;5072111;28;20040;-72
2022/08/08 03:07:06;;;;;;;7.07;4.30;;;13.60;99.90;;;;;;5072133;28;20540;-71
2022/08/08 03:09:43;;;;;;;5.10;2.80;;;13.60;99.90;;;;;;5071941;28;20036;-72
2022/08/08 03:12:46;;;;;;;4.55;2.90;;;13.50;99.90;;;;;;5055248;28;20489;-72
2022/08/08 03:15:11;;;;;;;7.20;2.97;;;13.60;99.90;;;;;;5072042;28;20519;-71
2022/08/08 03:18:02;;;;;;;5.28;2.97;;;13.50;99.90;;;;;;5072133;28;20126;-72
2022/08/08 03:20:44;;;;;;;4.68;3.38;;;13.50;99.90;;;;;;5038502;28;20079;-72
2022/08/08 03:23:10;;;;;;;5.40;3.45;;;13.40;99.90;;;;;;5054882;28;20041;-72
2022/08/08 03:25:35;;;;;;;3.88;3.20;;;13.40;99.90;;;;;;5071756;28;20090;-71
2022/08/08 03:28:36;;;;;;;3.95;3.10;;;13.40;99.90;;;;;;5071768;28;20086;-71
2022/08/08 03:33:17;;;;;;;4.75;3.00;;;13.40;99.90;;;;;;5072076;28;20142;-72
2022/08/08 03:33:48;;;;;;;3.55;2.67;;;13.40;99.90;;;;;;5072462;28;20516;-72
2022/08/08 03:36:14;;;;;;;5.43;2.80;;;13.40;99.90;;;;;;5071692;28;20119;-71
2022/08/08 03:38:40;;;;;;;5.10;2.75;;;13.50;99.90;;;;;;5072124;28;20040;-71
2022/08/08 03:41:05;;;;;;;3.05;2.70;;;13.50;99.90;;;;;;5059068;28;20045;-72
2022/08/08 03:43:31;;;;;;;4.93;2.95;;;13.40;99.90;;;;;;5075679;28;20040;-72
2022/08/08 03:46:03;;;;;;;5.25;2.70;;;13.40;99.90;;;;;;5075666;28;20044;-71
2022/08/08 03:48:28;;;;;;;3.83;2.80;;;13.40;99.90;;;;;;5075945;28;20029;-71
2022/08/08 03:50:54;;;;;;;6.18;3.20;;;13.40;99.90;;;;;;5075912;28;20447;-72
2022/08/08 03:53:20;;;;;;;3.78;2.90;;;13.40;99.90;;;;;;5059146;28;20249;-72
2022/08/08 03:55:50;;;;;;;4.60;2.95;;;13.40;99.90;;;;;;5075450;28;20047;-71
2022/08/08 03:58:22;;;;;;;5.05;2.70;;;13.40;99.90;;;;;;5058774;28;20611;-72
2022/08/08 04:00:52;;;;;;;4.13;2.92;;;13.40;99.90;;;;;;5075438;28;20082;-72
2022/08/08 04:03:18;;;;;;;3.92;2.78;;;13.30;99.90;;;;;;5075634;28;20044;-72
2022/08/08 04:05:46;;;;;;;5.53;3.53;;;13.30;99.90;;;;;;5075524;28;20055;-71
2022/08/08 04:08:18;;;;;;;4.80;3.10;;;13.30;99.90;;;;;;5075531;28;20028;-71
2022/08/08 04:10:47;;;;;;;4.60;3.40;;;13.30;99.90;;;;;;5075210;28;20409;-72
2022/08/08 04:13:13;;;;;;;6.10;3.60;;;13.20;99.90;;;;;;5058463;28;20036;-72
2022/08/08 04:15:39;;;;;;;6.30;2.70;;;13.10;99.90;;;;;;5074997;28;20498;-72
2022/08/08 04:18:05;;;;;;;4.07;2.53;;;13.10;99.90;;;;;;5075131;28;20048;-72
2022/08/08 04:20:31;;;;;;;4.28;2.70;;;13.20;99.90;;;;;;5075067;28;20037;-72
2022/08/08 04:22:56;;;;;;;3.35;2.42;;;13.10;99.90;;;;;;5074697;28;20048;-72
2022/08/08 04:25:22;;;;;;;3.83;2.60;;;13.10;99.90;;;;;;5074854;28;20033;-71
2022/08/08 04:27:48;;;;;;;3.03;2.38;;;13.10;99.90;;;;;;5058282;28;20067;-71
2022/08/08 04:30:13;;;;;;;3.55;2.72;;;13.10;99.90;;;;;;5074842;28;20078;-73
2022/08/08 04:32:39;;;;;;;5.22;3.05;;;13.10;99.90;;;;;;5075067;28;20037;-72
2022/08/08 04:35:05;;;;;;;5.43;3.05;;;13.10;99.90;;;;;;5074753;28;20160;-71
2022/08/08 04:37:31;;;;;;;5.00;2.60;;;13.10;99.90;;;;;;5074900;28;20462;-72
2022/08/08 04:39:56;;;;;;;4.20;2.50;;;13.10;99.90;;;;;;5058093;28;20505;-72
2022/08/08 04:42:24;;;;;;;6.68;3.08;;;13.10;99.90;;;;;;5074810;28;20041;-72
2022/08/08 04:44:50;;;;;;;4.70;2.88;;;13.10;99.90;;;;;;5074574;28;20047;-72
2022/08/08 04:47:16;;;;;;;5.30;2.72;;;13.10;99.90;;;;;;5074467;28;20032;-72
2022/08/08 04:49:42;;;;;;;4.78;2.83;;;13.10;99.90;;;;;;5074456;28;20028;-71
2022/08/08 04:52:07;;;;;;;7.28;3.22;;;13.20;99.90;;;;;;5057024;28;20085;-72
2022/08/08 04:54:33;;;;;;;5.18;3.20;;;13.20;99.90;;;;;;5074420;28;20119;-72
2022/08/08 04:56:59;;;;;;;5.03;3.20;;;13.20;99.90;;;;;;5057903;28;20033;-72
2022/08/08 04:59:24;;;;;;;7.68;3.10;;;13.20;99.90;;;;;;5074324;28;20058;-72
2022/08/08 05:01:50;;;;;;;4.35;2.83;;;13.30;99.90;;;;;;5074278;28;20039;-72
2022/08/08 05:04:16;;;;;;;5.30;3.00;;;13.30;99.90;;;;;;5074200;28;20040;-72
2022/08/08 05:06:41;;;;;;;4.35;2.50;;;13.30;99.90;;;;;;5074111;28;20036;-72
2022/08/08 05:09:07;;;;;;;5.25;3.38;;;13.40;99.90;;;;;;5074152;28;20037;-72
2022/08/08 05:11:32;;;;;;;4.38;3.22;;;13.50;99.90;;;;;;5074372;28;20090;-72
2022/08/08 05:13:58;;;;;;;6.60;3.55;;;13.50;99.90;;;;;;5074288;28;20487;-72
2022/08/08 05:16:24;;;;;;;4.55;3.00;;;13.50;99.90;;;;;;5074216;28;20046;-72
2022/08/08 05:18:50;;;;;;;4.38;3.45;;;13.50;99.90;;;;;;5074210;28;20551;-71
2022/08/08 05:21:16;;;;;;;5.25;2.88;;;13.50;99.90;;;;;;5074172;28;20424;-72
2022/08/08 05:23:41;;;;;;;3.72;3.13;;;13.60;99.90;;;;;;5073755;28;20082;-72
2022/08/08 05:26:07;;;;;;;6.50;3.17;;;13.70;99.90;;;;;;5073798;28;20033;-71
2022/08/08 05:28:32;;;;;;;4.85;3.47;;;13.80;99.90;;;;;;5057125;28;20032;-71
2022/08/08 05:30:58;;;;;;;4.45;3.03;;;13.90;99.90;;;;;;5057351;28;20040;-71
2022/08/08 05:33:24;;;;;;;7.03;3.50;;;14.00;99.90;;;;;;5073671;28;20123;-71
2022/08/08 05:35:52;;;;;;;6.15;3.45;;;14.10;99.90;;;;;;5073577;28;20097;-71
2022/08/08 05:38:20;;;;;;;5.95;3.40;;;14.20;99.90;;;;;;5073584;28;20182;-71
2022/08/08 05:40:48;;;;;;;7.25;3.55;;;14.30;99.90;;;;;;5073507;28;20490;-71
2022/08/08 05:43:25;;;;;;;8.63;4.13;;;14.40;99.90;;;;;;5073638;28;20040;-71
2022/08/08 05:45:56;;;;;;;6.78;3.63;;;14.60;99.90;;;;;;5073376;28;20035;-71
2022/08/08 05:48:22;;;;;;;8.90;3.55;;;14.70;99.90;;;;;;5056753;28;20036;-71
2022/08/08 05:50:49;;;;;;;7.25;3.55;;;14.80;99.90;;;;;;5074569;28;20036;-71
2022/08/08 05:53:15;;;;;;;5.97;3.55;;;15.00;99.90;;;;;;5056878;28;20040;-71
2022/08/08 05:55:43;;;;;;;9.65;3.72;;;15.10;99.90;;;;;;5073142;28;20044;-71
2022/08/08 05:58:11;;;;;;;5.65;3.25;;;15.10;99.90;;;;;;5073451;28;20040;-71
2022/08/08 06:00:37;;;;;;;7.35;3.22;;;15.20;99.90;;;;;;5073121;28;20036;-71
2022/08/08 06:03:13;;;;;;;10.35;3.22;;;15.30;99.90;;;;;;5071957;28;20047;-72
2022/08/08 06:05:50;;;;;;;5.95;3.15;;;15.40;99.90;;;;;;5072989;28;20071;-72
2022/08/08 06:08:23;;;;;;;7.57;3.60;;;15.50;99.90;;;;;;5056617;28;20511;-71
2022/08/08 06:10:49;;;;;;;8.68;3.60;;;15.60;99.90;;;;;;5073275;28;20037;-72
2022/08/08 06:13:15;;;;;;;11.07;3.65;;;15.70;99.90;;;;;;5072915;28;20492;-72
2022/08/08 06:15:45;;;;;;;13.18;3.47;;;15.80;99.90;;;;;;5072770;28;20052;-71
2022/08/08 06:18:12;;;;;;;8.57;3.50;;;15.90;99.90;;;;;;5072798;28;20045;-72
2022/08/08 06:20:38;;;;;;;8.10;3.60;;;16.00;99.90;;;;;;5072598;28;20505;-71
2022/08/08 06:23:04;;;;;;;8.43;3.33;;;16.10;99.90;;;;;;5072407;28;20047;-71
2022/08/08 06:25:33;;;;;;;7.57;3.22;;;16.20;99.90;;;;;;5056281;28;20044;-71
2022/08/08 06:28:02;;;;;;;9.30;3.70;;;16.40;99.90;;;;;;5073321;28;20040;-71
2022/08/08 06:30:30;;;;;;;7.63;3.67;;;16.50;99.90;;;;;;5072618;28;20048;-72
2022/08/08 06:32:58;;;;;;;7.07;3.00;;;16.60;99.90;;;;;;5072522;28;20044;-72
2022/08/08 06:35:24;;;;;;;6.43;2.50;;;16.80;99.90;;;;;;5072427;28;20485;-70
2022/08/08 06:37:52;;;;;;;8.38;3.03;;;16.90;99.90;;;;;;5072425;28;20041;-70
2022/08/08 06:40:20;;;;;;;8.93;2.78;;;17.00;99.90;;;;;;5072718;28;20044;-72
2022/08/08 06:42:52;;;;;;;6.40;2.15;;;17.10;99.90;;;;;;5074078;28;20048;-71
2022/08/08 06:45:19;;;;;;;9.23;2.13;;;17.20;99.90;;;;;;5072255;28;20047;-71
2022/08/08 06:47:45;;;;;;;8.30;2.28;;;17.40;99.90;;;;;;5072567;28;20041;-71
2022/08/08 06:50:11;;;;;;;9.38;2.60;;;17.50;99.90;;;;;;5055510;28;20041;-72
2022/08/08 06:52:37;;;;;;;5.82;2.13;;;17.60;99.90;;;;;;5072171;28;20063;-72
2022/08/08 06:55:05;;;;;;;9.38;2.30;;;17.80;99.90;;;;;;5072271;28;20497;-72
2022/08/08 06:57:31;;;;;;;7.43;2.00;;;17.90;99.90;;;;;;5072114;28;20040;-71
2022/08/08 06:59:57;;;;;;;7.18;2.08;;;18.00;99.90;;;;;;5072582;28;20039;-72
2022/08/08 07:02:25;;;;;;;11.05;2.42;;;18.00;99.90;;;;;;5072325;28;20044;-72
2022/08/08 07:04:53;;;;;;;11.85;1.90;;;18.10;99.90;;;;;;5071950;28;20508;-71
2022/08/08 07:07:30;;;;;;;7.38;2.38;;;18.10;99.90;;;;;;5055148;28;20037;-71
2022/08/08 07:10:05;;;;;;;7.10;2.03;;;18.20;99.90;;;;;;5071988;28;20037;-72
2022/08/08 07:12:53;;;;;;;8.57;2.22;;;18.30;99.90;;;;;;5072177;28;20101;-72
2022/08/08 07:15:32;;;;;;;7.13;1.90;;;18.40;99.90;;;;;;5071678;28;20044;-71
2022/08/08 07:18:05;;;;;;;7.22;2.17;;;18.40;99.90;;;;;;5071889;28;20040;-72
2022/08/08 07:20:38;;;;;;;6.15;2.00;;;18.50;99.90;;;;;;5072139;28;20044;-71
2022/08/08 07:23:10;;;;;;;8.15;1.92;;;18.50;99.90;;;;;;5054849;28;20041;-72
2022/08/08 07:25:40;;;;;;;8.00;1.80;;;18.60;99.90;;;;;;5071982;28;20040;-72
2022/08/08 07:28:08;;;;;;;8.05;1.90;;;18.70;99.90;;;;;;5071681;28;20044;-71
2022/08/08 07:30:34;;;;;;;7.45;2.15;;;18.80;99.90;;;;;;5071648;28;20497;-72
2022/08/08 07:33:00;;;;;;;12.57;2.00;;;18.90;99.90;;;;;;5071671;28;20075;-72
2022/08/08 07:35:27;;;;;;;29.92;3.72;;;18.90;99.90;;;;;;5071536;28;20043;-71
2022/08/08 07:37:55;;;;;;;15.98;2.15;;;19.10;99.90;;;;;;5071608;28;20045;-72
2022/08/08 07:40:21;;;;;;;23.83;2.53;;;19.20;99.90;;;;;;5071580;28;20162;-72
2022/08/08 07:42:48;;;;;;;6.20;1.75;;;19.30;99.90;;;;;;5071718;28;20032;-72
2022/08/08 07:45:14;;;;;;;9.25;1.70;;;19.30;99.90;;;;;;5071745;28;20094;-71
2022/08/08 07:47:39;;;;;;;9.50;2.00;;;19.40;99.90;;;;;;5071553;28;20493;-71
2022/08/08 07:50:05;;;;;;;8.88;2.03;;;19.50;99.90;;;;;;5071470;28;20132;-71
2022/08/08 07:52:31;;;;;;;6.95;1.70;;;19.60;99.90;;;;;;5071720;28;20037;-72
2022/08/08 07:55:12;;;;;;;7.10;1.50;;;19.70;99.90;;;;;;5071447;28;20068;-72
2022/08/08 07:57:50;;;;;;;6.68;1.50;;;19.80;99.90;;;;;;5071414;28;20520;-72
2022/08/08 08:00:17;;;;;;;7.72;1.65;;;20.00;99.90;;;;;;5055003;28;20174;-72
2022/08/08 08:02:46;;;;;;;7.00;1.45;;;20.10;99.90;;;;;;5054814;28;20029;-72
2022/08/08 08:05:25;;;;;;;8.85;1.70;;;20.20;99.90;;;;;;5071298;28;20043;-71
2022/08/08 08:08:10;;;;;;;5.75;1.42;;;20.30;99.90;;;;;;5071696;28;20032;-72
2022/08/08 08:10:37;;;;;;;3.72;1.30;;;20.40;99.90;;;;;;5047673;28;20569;-72
2022/08/08 08:13:29;;;;;;;8.50;1.73;;;20.50;99.90;;;;;;5071382;28;20040;-72
2022/08/08 08:16:04;;;;;;;11.23;1.27;;;20.70;99.90;;;;;;5054558;28;20131;-71
2022/08/08 08:18:36;;;;;;;5.13;1.17;;;20.80;99.90;;;;;;5071217;28;20037;-71
2022/08/08 08:21:02;;;;;;;4.82;1.15;;;21.00;99.90;;;;;;5071357;28;20041;-72
2022/08/08 08:23:28;;;;;;;3.85;1.10;;;21.10;99.90;;;;;;5071075;28;20119;-72
2022/08/08 08:25:54;;;;;;;6.40;1.30;;;21.30;99.90;;;;;;5055165;28;20127;-71
2022/08/08 08:28:21;;;;;;;7.32;1.48;;;21.20;99.90;;;;;;5058529;28;20036;-71
2022/08/08 08:30:47;;;;;;;5.00;1.00;;;21.10;99.90;;;;;;5074914;28;20045;-71
2022/08/08 08:33:13;;;;;;;7.43;1.20;;;21.00;99.90;;;;;;5074858;28;20170;-71
2022/08/08 08:35:38;;;;;;;3.03;1.10;;;21.10;99.90;;;;;;5074641;28;20416;-71
2022/08/08 08:38:04;;;;;;;2.53;0.68;;;21.20;99.90;;;;;;5074709;28;20047;-72
2022/08/08 08:40:30;;;;;;;4.90;1.10;;;21.30;99.90;;;;;;5074643;28;20043;-72
2022/08/08 08:42:57;;;;;;;6.68;1.30;;;21.50;99.90;;;;;;5057921;28;20517;-72
2022/08/08 08:45:23;;;;;;;6.30;1.10;;;21.50;99.90;;;;;;5074764;28;20075;-71
2022/08/08 08:47:51;;;;;;;4.35;1.40;;;21.50;99.90;;;;;;5074526;28;20041;-72
2022/08/08 08:50:17;;;;;;;6.88;1.60;;;21.50;99.90;;;;;;5074385;28;20033;-71
2022/08/08 08:52:44;;;;;;;4.40;1.00;;;21.60;99.90;;;;;;5074720;28;20169;-71
2022/08/08 08:55:16;;;;;;;7.45;1.13;;;21.80;99.90;;;;;;5074644;28;20036;-71
2022/08/08 08:57:43;;;;;;;3.07;0.90;;;22.00;99.90;;;;;;5074389;28;20036;-71
2022/08/08 09:00:10;;;;;;;4.85;1.00;;;22.10;99.90;;;;;;5074537;28;20045;-71
2022/08/08 09:02:37;;;;;;;4.63;1.02;;;22.10;99.90;;;;;;5074183;28;20086;-72
2022/08/08 09:05:08;;;;;;;4.22;0.70;;;22.30;99.90;;;;;;5074126;28;20510;-71
2022/08/08 09:07:35;;;;;;;3.08;0.90;;;22.60;99.90;;;;;;5074181;28;20036;-71
2022/08/08 09:10:01;;;;;;;4.70;0.85;;;22.80;99.90;;;;;;5074109;28;20550;-72
2022/08/08 09:12:27;;;;;;;5.43;1.17;;;23.10;99.90;;;;;;5074214;28;20036;-72
2022/08/08 09:14:56;;;;;;;5.28;1.13;;;23.20;99.90;;;;;;5074298;28;20102;-71
2022/08/08 09:17:24;;;;;;;4.25;0.85;;;23.30;99.90;;;;;;5073969;28;20040;-72
2022/08/08 09:19:58;;;;;;;6.75;0.90;;;23.50;99.20;;;;;;5074195;28;20072;-72
2022/08/08 09:22:24;;;;;;;3.50;1.00;;;23.60;98.30;;;;;;5073802;28;20036;-72
2022/08/08 09:24:51;;;;;;;3.67;0.80;;;23.60;97.20;;;;;;5057140;28;20033;-72
2022/08/08 09:27:18;;;;;;;3.25;0.77;;;23.50;96.80;;;;;;5073766;28;20145;-71
2022/08/08 09:29:57;;;;;;;7.20;0.90;;;23.40;96.50;;;;;;5073777;28;20045;-71
2022/08/08 09:32:41;;;;;;;6.68;0.98;;;23.30;96.40;;;;;;5057313;28;20036;-72
2022/08/08 09:35:19;;;;;;;4.82;0.90;;;23.00;96.80;;;;;;5056928;28;20040;-71
2022/08/08 09:37:44;;;;;;;3.80;0.98;;;22.60;98.60;;;;;;5073409;28;20124;-72
2022/08/08 09:40:13;;;;;;;4.25;0.80;;;22.40;99.80;;;;;;5073611;28;20119;-72
2022/08/08 09:42:42;;;;;;;7.82;1.15;;;22.20;99.60;;;;;;5056696;28;20040;-72
2022/08/08 09:45:33;;;;;;;4.05;1.00;;;22.10;99.90;;;;;;5056795;28;20494;-73
2022/08/08 09:48:02;;;;;;;2.45;0.77;;;22.10;99.80;;;;;;5073491;28;20050;-72
2022/08/08 09:50:29;;;;;;;4.88;0.70;;;22.20;99.90;;;;;;5073296;28;20051;-71
2022/08/08 09:52:56;;;;;;;5.80;0.80;;;22.30;99.90;;;;;;5073370;28;20051;-71
2022/08/08 09:55:29;;;;;;;4.70;0.75;;;22.40;99.90;;;;;;5073184;28;20044;-71
2022/08/08 09:58:05;;;;;;;;;;;22.50;99.90;;;;;;5073903;28;20562;-72
2022/08/08 10:00:34;;;;;;;5.82;1.13;;;22.70;99.90;;;;;;5073172;28;19916;-72
2022/08/08 10:03:02;;;;;;;3.60;0.73;;;22.80;99.00;;;;;;5072975;28;20041;-72
2022/08/08 10:05:33;;;;;;;5.40;1.25;;;23.30;96.60;;;;;;5072984;28;20036;-71
2022/08/08 10:07:59;;;;;;;4.00;0.55;;;23.90;94.90;;;;;;5072962;28;20037;-71
2022/08/08 10:10:45;;;;;;;4.28;0.70;;;24.30;91.40;;;;;;5072876;28;20086;-72
2022/08/08 10:13:18;;;;;;;2.33;0.50;;;24.30;87.80;;;;;;5072888;28;20049;-73
2022/08/08 10:15:45;;;;;;;;;;;24.20;82.60;;;;;;5073214;28;20048;-71
2022/08/08 10:18:11;;;;;;;2.95;0.52;;;24.10;79.90;;;;;;5073088;28;20360;-72
2022/08/08 10:20:46;;;;;;;4.18;0.70;;;24.00;84.20;;;;;;5073070;28;20570;-72
2022/08/08 10:23:15;;;;;;;3.97;0.70;;;24.00;83.30;;;;;;5072456;28;20404;-73
2022/08/08 10:25:44;;;;;;;4.28;0.60;;;23.90;82.00;;;;;;5072574;28;20051;-72
2022/08/08 10:28:20;;;;;;;3.65;0.57;;;23.80;82.00;;;;;;5055970;28;20052;-72
2022/08/08 10:30:58;;;;;;;1.95;0.60;;;23.70;83.20;;;;;;5072638;28;20117;-73
2022/08/08 10:33:32;;;;;;;1.65;0.60;;;23.60;85.10;;;;;;5072737;28;20197;-73
2022/08/08 10:36:03;;;;;;;3.03;0.32;;;23.50;84.60;;;;;;5056020;28;20047;-71
2022/08/08 10:38:31;;;;;;;2.17;0.63;;;23.50;86.70;;;;;;5072643;28;20055;-72
2022/08/08 10:41:02;;;;;;;4.97;0.60;;;23.50;86.30;;;;;;5072852;28;20048;-72
2022/08/08 10:43:39;;;;;;;3.97;0.63;;;23.50;87.40;;;;;;5072226;28;20048;-72
2022/08/08 10:46:24;;;;;;;7.60;0.90;;;23.50;88.50;;;;;;5073208;28;20051;-71
2022/08/08 10:48:54;;;;;;;3.42;0.82;;;23.50;89.80;;;;;;5071633;28;20032;-71
2022/08/08 10:51:25;;;;;;;1.92;0.50;;;23.50;90.30;;;;;;5072356;28;20047;-72
2022/08/08 10:53:54;;;;;;;3.92;0.77;;;23.50;91.60;;;;;;5072126;28;20386;-73
2022/08/08 10:56:20;;;;;;;3.05;0.70;;;23.50;92.40;;;;;;5055393;28;20052;-71
2022/08/08 10:58:46;;;;;;;4.80;0.73;;;23.50;91.60;;;;;;5072070;28;20524;-71
2022/08/08 11:01:13;;;;;;;4.25;0.68;;;23.40;91.50;;;;;;5072246;28;20044;-72
2022/08/08 11:03:41;;;;;;;3.03;0.85;;;23.40;91.30;;;;;;5071784;28;20131;-72
2022/08/08 11:06:07;;;;;;;4.55;0.90;;;23.30;91.70;;;;;;5071930;28;20068;-72
2022/08/08 11:08:35;;;;;;;4.80;0.68;;;23.40;91.90;;;;;;5071925;28;20060;-72
2022/08/08 11:11:08;;;;;;;2.33;0.60;;;23.40;91.40;;;;;;5071892;28;20041;-73
2022/08/08 11:13:44;;;;;;;2.13;0.52;;;23.40;91.00;;;;;;5071968;28;20081;-73
2022/08/08 11:16:21;;;;;;;2.65;0.70;;;23.50;90.90;;;;;;5072005;28;20033;-72
2022/08/08 11:18:48;;;;;;;8.25;1.33;;;23.50;90.50;;;;;;5071843;28;20045;-72
2022/08/08 11:21:15;;;;;;;3.63;0.70;;;23.60;90.10;;;;;;5072045;28;20134;-73
2022/08/08 11:23:42;;;;;;;5.93;0.93;;;23.70;89.50;;;;;;5071857;28;20041;-72
2022/08/08 11:26:12;;;;;;;7.53;1.02;;;23.70;89.80;;;;;;5071973;28;20029;-72
2022/08/08 11:28:39;;;;;;;4.25;0.90;;;23.80;89.70;;;;;;5071966;28;20086;-71
2022/08/08 11:31:05;;;;;;;4.45;0.60;;;23.90;90.00;;;;;;5071957;28;20458;-72
2022/08/08 11:33:34;;;;;;;7.78;0.50;;;24.00;88.80;;;;;;5071694;28;20048;-73
2022/08/08 11:36:00;;;;;;;2.60;0.77;;;24.10;85.50;;;;;;5071545;28;20047;-71
2022/08/08 11:38:26;;;;;;;3.83;1.00;;;24.20;85.00;;;;;;5071643;28;20037;-72
2022/08/08 11:40:53;;;;;;;3.00;0.57;;;24.30;85.10;;;;;;5071945;28;20047;-72
2022/08/08 11:43:22;;;;;;;4.60;0.98;;;24.30;84.60;;;;;;5071593;28;20532;-72
2022/08/08 11:45:50;;;;;;;3.08;0.95;;;24.40;84.90;;;;;;5071554;28;20474;-72
2022/08/08 11:48:17;;;;;;;3.90;0.68;;;24.50;86.70;;;;;;5054963;28;20044;-73
2022/08/08 11:50:45;;;;;;;2.20;0.60;;;24.60;86.10;;;;;;5071792;28;20049;-72
2022/08/08 11:53:11;;;;;;;4.40;0.50;;;24.70;84.60;;;;;;5071436;28;20550;-73
2022/08/08 11:55:47;;;;;;;1.90;0.40;;;24.60;82.60;;;;;;5071460;28;20062;-72
2022/08/08 11:58:13;;;;;;;2.17;0.52;;;24.70;81.00;;;;;;5071706;28;20105;-72
2022/08/08 12:00:43;;;;;;;2.17;0.50;;;24.70;83.50;;;;;;5073428;28;20504;-72
2022/08/08 12:03:23;;;;;;;3.35;0.60;;;24.60;82.60;;;;;;5058584;28;20178;-72
2022/08/08 12:05:50;;;;;;;4.25;0.60;;;24.50;81.00;;;;;;5058640;28;20504;-72
2022/08/08 12:08:28;;;;;;;4.32;0.70;;;24.40;81.50;;;;;;5075623;28;20163;-73
2022/08/08 12:11:00;;;;;;;1.33;0.50;;;24.30;81.80;;;;;;5075339;28;20040;-73
2022/08/08 12:13:26;;;;;;;4.45;0.68;;;24.30;82.00;;;;;;5075288;28;20090;-72
2022/08/08 12:15:52;;;;;;;3.28;0.95;;;24.20;84.40;;;;;;5075092;28;20489;-73
2022/08/08 12:18:24;;;;;;;3.17;0.75;;;24.20;85.00;;;;;;5075117;28;20036;-73
2022/08/08 12:20:55;;;;;;;4.05;0.90;;;24.20;86.30;;;;;;5075334;28;20044;-72
2022/08/08 12:23:32;;;;;;;4.53;0.75;;;24.10;87.90;;;;;;5058265;28;20040;-73
2022/08/08 12:26:12;;;;;;;3.15;0.60;;;24.00;89.20;;;;;;5058442;28;20123;-72
2022/08/08 12:28:38;;;;;;;3.90;0.60;;;24.00;91.00;;;;;;5074876;28;20485;-72
2022/08/08 12:31:10;;;;;;;5.47;1.02;;;24.00;91.00;;;;;;5074856;28;20115;-73
2022/08/08 12:33:39;;;;;;;2.40;0.45;;;24.00;90.70;;;;;;5074881;28;20041;-73
2022/08/08 12:36:12;;;;;;;3.88;0.80;;;23.80;91.20;;;;;;5074731;28;20167;-72
2022/08/08 12:38:50;;;;;;;3.30;0.70;;;23.80;91.90;;;;;;5058138;28;20123;-72
2022/08/08 12:41:16;;;;;;;3.45;0.60;;;23.70;91.80;;;;;;5074748;28;20070;-72
2022/08/08 12:43:41;;;;;;;2.17;0.77;;;23.60;92.90;;;;;;5074599;28;20123;-73
2022/08/08 12:46:14;;;;;;;3.45;0.70;;;23.50;92.00;;;;;;5074508;28;20037;-72
2022/08/08 12:48:51;;;;;;;2.28;0.60;;;23.50;93.50;;;;;;5074595;28;20044;-72
2022/08/08 12:51:20;;;;;;;7.50;0.95;;;23.40;93.10;;;;;;5074582;28;20044;-72
2022/08/08 12:53:57;;;;;;;3.17;0.60;;;23.50;93.80;;;;;;5074502;28;20497;-72
2022/08/08 12:56:37;;;;;;;1.88;0.40;;;23.50;94.10;;;;;;5057972;28;20093;-72
2022/08/08 12:59:16;;;;;;;3.10;0.63;;;23.50;95.30;;;;;;5074369;28;20097;-72
2022/08/08 13:01:49;;;;;;;5.07;0.82;;;23.60;94.60;;;;;;5074315;28;20119;-73
2022/08/08 13:04:17;;;;;;;2.65;0.85;;;23.60;94.70;;;;;;5074284;28;20040;-73
2022/08/08 13:06:52;;;;;;;5.10;0.60;;;23.60;95.30;;;;;;5074407;28;20045;-72
2022/08/08 13:09:53;;;;;;;6.80;0.80;;;23.60;96.40;;;;;;5074156;28;20047;-73
2022/08/08 13:12:28;;;;;;;5.22;1.10;;;23.60;95.10;;;;;;5071849;28;20063;-73
2022/08/08 13:14:55;;;;;;;3.08;0.65;;;23.70;96.50;;;;;;5057709;28;20051;-73
2022/08/08 13:17:26;;;;;;;2.92;0.70;;;23.70;96.50;;;;;;5057177;28;20044;-72
2022/08/08 13:19:53;;;;;;;5.82;0.75;;;23.80;95.60;;;;;;5074217;28;20048;-72
2022/08/08 13:22:19;;;;;;;5.00;0.70;;;23.70;95.40;;;;;;5073699;28;20051;-73